sensor_id;sensor_type;location;lat;lon;timestamp;P1;durP1;ratioP1;P2;durP2;ratioP2
17596;SDS011;8917;50.942;6.946;2024-03-23T00:55:41;9.60;;;5.27;;
17596;SDS011;8917;50.942;6.946;2024-03-23T00:58:08;11.33;;;5.47;;
17596;SDS011;8917;50.942;6.946;2024-03-23T01:00:34;12.43;;;5.80;;
17596;SDS011;8917;50.942;6.946;2024-03-23T01:03:02;13.20;;;5.50;;
17596;SDS011;8917;50.942;6.946;2024-03-23T01:05:28;12.20;;;6.60;;
17596;SDS011;8917;50.942;6.946;2024-03-23T01:07:55;8.07;;;4.63;;
17596;SDS011;8917;50.942;6.946;2024-03-23T01:10:22;11.57;;;5.27;;
17596;SDS011;8917;50.942;6.946;2024-03-23T01:12:50;10.77;;;4.87;;
17596;SDS011;8917;50.942;6.946;2024-03-23T01:15:16;10.10;;;4.63;;
17596;SDS011;8917;50.942;6.946;2024-03-23T01:17:44;9.23;;;5.00;;
17596;SDS011;8917;50.942;6.946;2024-03-23T01:20:10;9.60;;;4.37;;
17596;SDS011;8917;50.942;6.946;2024-03-23T01:22:37;6.17;;;3.80;;
17596;SDS011;8917;50.942;6.946;2024-03-23T01:25:03;4.33;;;2.57;;
17596;SDS011;8917;50.942;6.946;2024-03-23T01:27:31;5.40;;;2.70;;
17596;SDS011;8917;50.942;6.946;2024-03-23T01:29:59;4.33;;;2.40;;
17596;SDS011;8917;50.942;6.946;2024-03-23T01:32:26;4.43;;;2.20;;
17596;SDS011;8917;50.942;6.946;2024-03-23T01:34:52;4.33;;;1.77;;
17596;SDS011;8917;50.942;6.946;2024-03-23T01:37:19;3.67;;;1.80;;
17596;SDS011;8917;50.942;6.946;2024-03-23T01:39:46;4.57;;;2.00;;
17596;SDS011;8917;50.942;6.946;2024-03-23T01:42:13;3.77;;;2.10;;
17596;SDS011;8917;50.942;6.946;2024-03-23T01:44:39;3.57;;;1.80;;
17596;SDS011;8917;50.942;6.946;2024-03-23T01:47:08;5.10;;;2.07;;
17596;SDS011;8917;50.942;6.946;2024-03-23T01:49:34;4.63;;;2.40;;
17596;SDS011;8917;50.942;6.946;2024-03-23T01:52:02;3.90;;;2.03;;
17596;SDS011;8917;50.942;6.946;2024-03-23T01:54:28;5.40;;;2.53;;
17596;SDS011;8917;50.942;6.946;2024-03-23T01:56:56;5.70;;;2.60;;
17596;SDS011;8917;50.942;6.946;2024-03-23T01:59:22;3.93;;;2.50;;
17596;SDS011;8917;50.942;6.946;2024-03-23T02:01:50;4.30;;;2.40;;
17596;SDS011;8917;50.942;6.946;2024-03-23T02:04:18;3.30;;;2.00;;
17596;SDS011;8917;50.942;6.946;2024-03-23T02:06:45;5.90;;;2.60;;
17596;SDS011;8917;50.942;6.946;2024-03-23T02:09:11;5.07;;;2.47;;
17596;SDS011;8917;50.942;6.946;2024-03-23T02:11:38;5.50;;;2.63;;
17596;SDS011;8917;50.942;6.946;2024-03-23T02:14:04;5.90;;;2.90;;
17596;SDS011;8917;50.942;6.946;2024-03-23T02:16:32;5.97;;;2.63;;
17596;SDS011;8917;50.942;6.946;2024-03-23T02:18:59;6.70;;;2.50;;
17596;SDS011;8917;50.942;6.946;2024-03-23T02:21:27;6.03;;;2.70;;
17596;SDS011;8917;50.942;6.946;2024-03-23T02:23:58;6.10;;;2.50;;
17596;SDS011;8917;50.942;6.946;2024-03-23T02:26:25;6.33;;;2.40;;
17596;SDS011;8917;50.942;6.946;2024-03-23T02:28:51;6.87;;;2.50;;
17596;SDS011;8917;50.942;6.946;2024-03-23T02:31:19;6.40;;;2.30;;
17596;SDS011;8917;50.942;6.946;2024-03-23T02:33:45;5.10;;;1.93;;
17596;SDS011;8917;50.942;6.946;2024-03-23T02:36:12;4.40;;;1.80;;
17596;SDS011;8917;50.942;6.946;2024-03-23T02:38:38;4.40;;;2.07;;
17596;SDS011;8917;50.942;6.946;2024-03-23T02:41:06;3.40;;;1.73;;
17596;SDS011;8917;50.942;6.946;2024-03-23T02:43:33;4.67;;;2.00;;
17596;SDS011;8917;50.942;6.946;2024-03-23T02:46:00;3.07;;;1.90;;
17596;SDS011;8917;50.942;6.946;2024-03-23T02:48:26;4.50;;;1.43;;
17596;SDS011;8917;50.942;6.946;2024-03-23T02:50:53;4.83;;;1.73;;
17596;SDS011;8917;50.942;6.946;2024-03-23T02:53:19;2.70;;;1.50;;
17596;SDS011;8917;50.942;6.946;2024-03-23T02:55:47;3.40;;;1.63;;
17596;SDS011;8917;50.942;6.946;2024-03-23T02:58:14;4.00;;;1.80;;
17596;SDS011;8917;50.942;6.946;2024-03-23T03:00:41;3.67;;;1.37;;
17596;SDS011;8917;50.942;6.946;2024-03-23T03:03:08;3.73;;;1.93;;
17596;SDS011;8917;50.942;6.946;2024-03-23T03:05:35;3.80;;;2.00;;
17596;SDS011;8917;50.942;6.946;2024-03-23T03:08:01;3.70;;;2.20;;
17596;SDS011;8917;50.942;6.946;2024-03-23T03:10:28;5.20;;;2.03;;
17596;SDS011;8917;50.942;6.946;2024-03-23T03:12:55;4.93;;;2.40;;
17596;SDS011;8917;50.942;6.946;2024-03-23T03:15:24;5.90;;;2.47;;
17596;SDS011;8917;50.942;6.946;2024-03-23T03:17:50;4.37;;;2.10;;
17596;SDS011;8917;50.942;6.946;2024-03-23T03:20:17;5.87;;;2.60;;
17596;SDS011;8917;50.942;6.946;2024-03-23T03:22:43;9.17;;;2.80;;
17596;SDS011;8917;50.942;6.946;2024-03-23T03:25:10;6.17;;;2.20;;
17596;SDS011;8917;50.942;6.946;2024-03-23T03:27:37;4.97;;;2.20;;
17596;SDS011;8917;50.942;6.946;2024-03-23T03:30:05;5.87;;;2.40;;
17596;SDS011;8917;50.942;6.946;2024-03-23T03:32:34;6.00;;;2.60;;
17596;SDS011;8917;50.942;6.946;2024-03-23T03:35:02;7.53;;;2.40;;
17596;SDS011;8917;50.942;6.946;2024-03-23T03:37:28;5.07;;;2.17;;
17596;SDS011;8917;50.942;6.946;2024-03-23T03:39:55;4.63;;;2.30;;
17596;SDS011;8917;50.942;6.946;2024-03-23T03:42:21;5.17;;;2.20;;
17596;SDS011;8917;50.942;6.946;2024-03-23T03:44:48;5.17;;;2.07;;
17596;SDS011;8917;50.942;6.946;2024-03-23T03:47:14;4.10;;;2.37;;
17596;SDS011;8917;50.942;6.946;2024-03-23T03:49:43;8.40;;;2.60;;
17596;SDS011;8917;50.942;6.946;2024-03-23T03:52:09;6.70;;;2.03;;
17596;SDS011;8917;50.942;6.946;2024-03-23T03:54:36;5.40;;;2.20;;
17596;SDS011;8917;50.942;6.946;2024-03-23T03:57:03;6.63;;;2.27;;
17596;SDS011;8917;50.942;6.946;2024-03-23T03:59:30;6.70;;;2.40;;
17596;SDS011;8917;50.942;6.946;2024-03-23T04:01:56;6.67;;;2.00;;
17596;SDS011;8917;50.942;6.946;2024-03-23T04:04:23;5.50;;;2.10;;
17596;SDS011;8917;50.942;6.946;2024-03-23T04:06:50;5.90;;;2.03;;
17596;SDS011;8917;50.942;6.946;2024-03-23T04:09:24;4.97;;;1.87;;
17596;SDS011;8917;50.942;6.946;2024-03-23T04:11:50;5.13;;;1.97;;
17596;SDS011;8917;50.942;6.946;2024-03-23T04:14:17;5.43;;;2.10;;
17596;SDS011;8917;50.942;6.946;2024-03-23T04:16:44;4.27;;;1.77;;
17596;SDS011;8917;50.942;6.946;2024-03-23T04:19:11;8.03;;;2.20;;
17596;SDS011;8917;50.942;6.946;2024-03-23T04:21:37;5.93;;;2.00;;
17596;SDS011;8917;50.942;6.946;2024-03-23T04:24:06;4.83;;;2.20;;
17596;SDS011;8917;50.942;6.946;2024-03-23T04:26:39;5.33;;;2.00;;
17596;SDS011;8917;50.942;6.946;2024-03-23T04:29:07;6.53;;;2.23;;
17596;SDS011;8917;50.942;6.946;2024-03-23T04:31:33;5.30;;;2.00;;
17596;SDS011;8917;50.942;6.946;2024-03-23T04:34:00;4.87;;;1.43;;
17596;SDS011;8917;50.942;6.946;2024-03-23T04:36:27;4.80;;;1.70;;
17596;SDS011;8917;50.942;6.946;2024-03-23T04:38:54;4.47;;;1.50;;
17596;SDS011;8917;50.942;6.946;2024-03-23T04:41:22;3.73;;;1.90;;
17596;SDS011;8917;50.942;6.946;2024-03-23T04:43:50;5.40;;;1.70;;
17596;SDS011;8917;50.942;6.946;2024-03-23T04:46:18;7.70;;;2.00;;
17596;SDS011;8917;50.942;6.946;2024-03-23T04:48:45;3.73;;;1.70;;
17596;SDS011;8917;50.942;6.946;2024-03-23T04:51:19;6.67;;;2.20;;
17596;SDS011;8917;50.942;6.946;2024-03-23T04:53:47;6.33;;;1.97;;
17596;SDS011;8917;50.942;6.946;2024-03-23T04:56:14;4.60;;;2.13;;
17596;SDS011;8917;50.942;6.946;2024-03-23T04:58:42;5.20;;;2.10;;
17596;SDS011;8917;50.942;6.946;2024-03-23T05:01:10;5.07;;;2.20;;
17596;SDS011;8917;50.942;6.946;2024-03-23T05:03:36;3.60;;;2.20;;
17596;SDS011;8917;50.942;6.946;2024-03-23T05:06:03;5.90;;;1.90;;
17596;SDS011;8917;50.942;6.946;2024-03-23T05:08:30;3.57;;;2.00;;
17596;SDS011;8917;50.942;6.946;2024-03-23T05:10:57;6.57;;;2.33;;
17596;SDS011;8917;50.942;6.946;2024-03-23T05:13:23;5.60;;;2.13;;
17596;SDS011;8917;50.942;6.946;2024-03-23T05:15:53;8.53;;;2.20;;
17596;SDS011;8917;50.942;6.946;2024-03-23T05:18:19;6.37;;;2.30;;
17596;SDS011;8917;50.942;6.946;2024-03-23T05:20:46;10.70;;;2.20;;
17596;SDS011;8917;50.942;6.946;2024-03-23T05:23:13;6.63;;;2.30;;
17596;SDS011;8917;50.942;6.946;2024-03-23T05:25:40;5.60;;;2.20;;
17596;SDS011;8917;50.942;6.946;2024-03-23T05:28:06;5.63;;;2.33;;
17596;SDS011;8917;50.942;6.946;2024-03-23T05:30:34;6.23;;;2.23;;
17596;SDS011;8917;50.942;6.946;2024-03-23T05:33:01;7.67;;;2.30;;
17596;SDS011;8917;50.942;6.946;2024-03-23T05:35:29;6.37;;;2.20;;
17596;SDS011;8917;50.942;6.946;2024-03-23T05:37:55;7.73;;;2.47;;
17596;SDS011;8917;50.942;6.946;2024-03-23T05:40:22;6.43;;;2.27;;
17596;SDS011;8917;50.942;6.946;2024-03-23T05:42:48;5.40;;;2.33;;
17596;SDS011;8917;50.942;6.946;2024-03-23T05:45:17;6.43;;;2.60;;
17596;SDS011;8917;50.942;6.946;2024-03-23T05:47:44;6.60;;;2.00;;
17596;SDS011;8917;50.942;6.946;2024-03-23T05:50:13;8.70;;;2.77;;
17596;SDS011;8917;50.942;6.946;2024-03-23T05:52:39;6.97;;;1.97;;
17596;SDS011;8917;50.942;6.946;2024-03-23T05:55:08;8.70;;;2.37;;
17596;SDS011;8917;50.942;6.946;2024-03-23T05:57:35;4.30;;;2.03;;
17596;SDS011;8917;50.942;6.946;2024-03-23T06:00:02;9.53;;;2.50;;
17596;SDS011;8917;50.942;6.946;2024-03-23T06:02:29;5.57;;;2.10;;
17596;SDS011;8917;50.942;6.946;2024-03-23T06:04:56;7.17;;;2.20;;
17596;SDS011;8917;50.942;6.946;2024-03-23T06:07:24;6.50;;;2.43;;
17596;SDS011;8917;50.942;6.946;2024-03-23T06:09:51;6.27;;;2.53;;
17596;SDS011;8917;50.942;6.946;2024-03-23T06:12:17;9.30;;;2.73;;
17596;SDS011;8917;50.942;6.946;2024-03-23T06:14:46;6.83;;;2.10;;
17596;SDS011;8917;50.942;6.946;2024-03-23T06:17:13;8.60;;;2.60;;
17596;SDS011;8917;50.942;6.946;2024-03-23T06:19:40;8.20;;;2.40;;
17596;SDS011;8917;50.942;6.946;2024-03-23T06:22:07;7.97;;;2.47;;
17596;SDS011;8917;50.942;6.946;2024-03-23T06:24:35;8.43;;;2.63;;
17596;SDS011;8917;50.942;6.946;2024-03-23T06:27:01;8.83;;;1.97;;
17596;SDS011;8917;50.942;6.946;2024-03-23T06:29:29;9.10;;;3.20;;
17596;SDS011;8917;50.942;6.946;2024-03-23T06:31:55;5.37;;;2.40;;
17596;SDS011;8917;50.942;6.946;2024-03-23T06:34:23;7.93;;;2.73;;
17596;SDS011;8917;50.942;6.946;2024-03-23T06:36:49;8.93;;;3.20;;
17596;SDS011;8917;50.942;6.946;2024-03-23T06:39:17;7.23;;;2.53;;
17596;SDS011;8917;50.942;6.946;2024-03-23T06:41:46;7.33;;;2.50;;
17596;SDS011;8917;50.942;6.946;2024-03-23T06:44:18;7.30;;;2.50;;
17596;SDS011;8917;50.942;6.946;2024-03-23T06:46:45;7.93;;;2.83;;
17596;SDS011;8917;50.942;6.946;2024-03-23T06:49:11;7.07;;;2.90;;
17596;SDS011;8917;50.942;6.946;2024-03-23T06:51:38;6.80;;;2.87;;
17596;SDS011;8917;50.942;6.946;2024-03-23T06:54:05;6.47;;;2.60;;
17596;SDS011;8917;50.942;6.946;2024-03-23T06:56:32;10.80;;;3.13;;
17596;SDS011;8917;50.942;6.946;2024-03-23T06:59:00;9.73;;;3.00;;
17596;SDS011;8917;50.942;6.946;2024-03-23T07:01:27;10.97;;;3.20;;
17596;SDS011;8917;50.942;6.946;2024-03-23T07:03:53;6.43;;;2.87;;
17596;SDS011;8917;50.942;6.946;2024-03-23T07:06:21;6.87;;;2.87;;
17596;SDS011;8917;50.942;6.946;2024-03-23T07:08:47;10.17;;;2.83;;
17596;SDS011;8917;50.942;6.946;2024-03-23T07:11:18;5.97;;;2.43;;
17596;SDS011;8917;50.942;6.946;2024-03-23T07:13:45;6.17;;;2.83;;
17596;SDS011;8917;50.942;6.946;2024-03-23T07:16:16;6.77;;;2.70;;
17596;SDS011;8917;50.942;6.946;2024-03-23T07:18:44;4.87;;;2.60;;
17596;SDS011;8917;50.942;6.946;2024-03-23T07:21:12;6.60;;;2.97;;
17596;SDS011;8917;50.942;6.946;2024-03-23T07:23:38;13.80;;;7.23;;
17596;SDS011;8917;50.942;6.946;2024-03-23T07:26:09;11.57;;;3.57;;
17596;SDS011;8917;50.942;6.946;2024-03-23T07:28:36;6.40;;;2.70;;
17596;SDS011;8917;50.942;6.946;2024-03-23T07:31:08;11.33;;;3.87;;
17596;SDS011;8917;50.942;6.946;2024-03-23T07:33:36;7.63;;;2.80;;
17596;SDS011;8917;50.942;6.946;2024-03-23T07:36:04;9.50;;;3.47;;
17596;SDS011;8917;50.942;6.946;2024-03-23T07:38:30;8.20;;;3.80;;
17596;SDS011;8917;50.942;6.946;2024-03-23T07:41:04;8.97;;;3.63;;
17596;SDS011;8917;50.942;6.946;2024-03-23T07:43:31;8.00;;;3.60;;
17596;SDS011;8917;50.942;6.946;2024-03-23T07:45:58;13.60;;;4.10;;
17596;SDS011;8917;50.942;6.946;2024-03-23T07:48:24;12.70;;;4.27;;
17596;SDS011;8917;50.942;6.946;2024-03-23T07:51:00;8.17;;;4.40;;
17596;SDS011;8917;50.942;6.946;2024-03-23T07:53:26;11.10;;;4.10;;
17596;SDS011;8917;50.942;6.946;2024-03-23T07:55:57;9.53;;;4.50;;
17596;SDS011;8917;50.942;6.946;2024-03-23T07:58:25;9.07;;;3.90;;
17596;SDS011;8917;50.942;6.946;2024-03-23T08:00:52;9.67;;;4.27;;
17596;SDS011;8917;50.942;6.946;2024-03-23T08:03:20;8.77;;;4.20;;
17596;SDS011;8917;50.942;6.946;2024-03-23T08:05:46;11.27;;;6.03;;
17596;SDS011;8917;50.942;6.946;2024-03-23T08:08:15;8.63;;;4.20;;
17596;SDS011;8917;50.942;6.946;2024-03-23T08:10:47;9.10;;;4.30;;
17596;SDS011;8917;50.942;6.946;2024-03-23T08:13:18;9.53;;;4.27;;
17596;SDS011;8917;50.942;6.946;2024-03-23T08:15:45;8.73;;;3.93;;
17596;SDS011;8917;50.942;6.946;2024-03-23T08:18:12;8.97;;;3.67;;
17596;SDS011;8917;50.942;6.946;2024-03-23T08:20:40;9.13;;;3.60;;
17596;SDS011;8917;50.942;6.946;2024-03-23T08:23:08;10.03;;;3.80;;
17596;SDS011;8917;50.942;6.946;2024-03-23T08:25:36;7.00;;;3.30;;
17596;SDS011;8917;50.942;6.946;2024-03-23T08:28:03;7.57;;;3.37;;
17596;SDS011;8917;50.942;6.946;2024-03-23T08:30:30;6.90;;;2.83;;
17596;SDS011;8917;50.942;6.946;2024-03-23T08:32:57;5.60;;;2.40;;
17596;SDS011;8917;50.942;6.946;2024-03-23T08:35:24;5.73;;;2.37;;
17596;SDS011;8917;50.942;6.946;2024-03-23T08:37:51;5.97;;;3.40;;
17596;SDS011;8917;50.942;6.946;2024-03-23T08:40:17;7.50;;;2.77;;
17596;SDS011;8917;50.942;6.946;2024-03-23T08:42:46;5.20;;;2.60;;
17596;SDS011;8917;50.942;6.946;2024-03-23T08:45:12;6.00;;;2.90;;
17596;SDS011;8917;50.942;6.946;2024-03-23T08:47:39;6.83;;;3.23;;
17596;SDS011;8917;50.942;6.946;2024-03-23T08:50:08;7.60;;;3.47;;
17596;SDS011;8917;50.942;6.946;2024-03-23T08:52:35;10.17;;;3.87;;
17596;SDS011;8917;50.942;6.946;2024-03-23T08:55:01;11.57;;;3.83;;
17596;SDS011;8917;50.942;6.946;2024-03-23T08:57:29;7.07;;;4.33;;
17596;SDS011;8917;50.942;6.946;2024-03-23T08:59:56;8.33;;;3.73;;
17596;SDS011;8917;50.942;6.946;2024-03-23T09:02:24;8.63;;;3.87;;
17596;SDS011;8917;50.942;6.946;2024-03-23T09:04:50;13.00;;;4.17;;
17596;SDS011;8917;50.942;6.946;2024-03-23T09:07:17;7.17;;;4.30;;
17596;SDS011;8917;50.942;6.946;2024-03-23T09:09:43;7.17;;;3.70;;
17596;SDS011;8917;50.942;6.946;2024-03-23T09:12:10;5.90;;;3.70;;
17596;SDS011;8917;50.942;6.946;2024-03-23T09:14:36;6.33;;;3.83;;
17596;SDS011;8917;50.942;6.946;2024-03-23T09:17:05;9.87;;;3.87;;
17596;SDS011;8917;50.942;6.946;2024-03-23T09:19:31;9.70;;;4.10;;
17596;SDS011;8917;50.942;6.946;2024-03-23T09:21:59;9.30;;;3.93;;
17596;SDS011;8917;50.942;6.946;2024-03-23T09:24:25;12.33;;;3.87;;
17596;SDS011;8917;50.942;6.946;2024-03-23T09:26:52;9.13;;;3.63;;
17596;SDS011;8917;50.942;6.946;2024-03-23T09:29:18;8.33;;;2.90;;
17596;SDS011;8917;50.942;6.946;2024-03-23T09:31:45;8.83;;;3.30;;
17596;SDS011;8917;50.942;6.946;2024-03-23T09:34:17;6.10;;;3.17;;
17596;SDS011;8917;50.942;6.946;2024-03-23T09:36:47;9.87;;;3.10;;
17596;SDS011;8917;50.942;6.946;2024-03-23T09:39:16;9.10;;;3.07;;
17596;SDS011;8917;50.942;6.946;2024-03-23T09:41:44;10.00;;;3.10;;
17596;SDS011;8917;50.942;6.946;2024-03-23T09:44:10;10.27;;;3.13;;
17596;SDS011;8917;50.942;6.946;2024-03-23T09:46:37;9.80;;;2.80;;
17596;SDS011;8917;50.942;6.946;2024-03-23T09:49:04;8.73;;;3.20;;
17596;SDS011;8917;50.942;6.946;2024-03-23T09:51:35;5.73;;;2.77;;
17596;SDS011;8917;50.942;6.946;2024-03-23T09:54:01;8.83;;;3.03;;
17596;SDS011;8917;50.942;6.946;2024-03-23T09:56:28;6.30;;;2.97;;
17596;SDS011;8917;50.942;6.946;2024-03-23T09:59:00;6.80;;;2.50;;
17596;SDS011;8917;50.942;6.946;2024-03-23T10:01:29;10.67;;;2.83;;
17596;SDS011;8917;50.942;6.946;2024-03-23T10:03:55;5.87;;;2.20;;
17596;SDS011;8917;50.942;6.946;2024-03-23T10:06:22;9.03;;;2.87;;
17596;SDS011;8917;50.942;6.946;2024-03-23T10:08:51;5.77;;;2.10;;
17596;SDS011;8917;50.942;6.946;2024-03-23T10:11:19;4.80;;;2.17;;
17596;SDS011;8917;50.942;6.946;2024-03-23T10:13:46;5.97;;;2.17;;
17596;SDS011;8917;50.942;6.946;2024-03-23T10:16:20;6.67;;;2.67;;
17596;SDS011;8917;50.942;6.946;2024-03-23T10:18:47;8.33;;;2.60;;
17596;SDS011;8917;50.942;6.946;2024-03-23T10:21:14;7.40;;;2.30;;
17596;SDS011;8917;50.942;6.946;2024-03-23T10:23:41;4.77;;;2.03;;
17596;SDS011;8917;50.942;6.946;2024-03-23T10:26:17;5.93;;;2.40;;
17596;SDS011;8917;50.942;6.946;2024-03-23T10:28:53;8.97;;;2.57;;
17596;SDS011;8917;50.942;6.946;2024-03-23T10:31:20;6.23;;;2.23;;
17596;SDS011;8917;50.942;6.946;2024-03-23T10:33:47;6.57;;;2.47;;
17596;SDS011;8917;50.942;6.946;2024-03-23T10:36:13;3.57;;;1.60;;
17596;SDS011;8917;50.942;6.946;2024-03-23T10:38:41;5.37;;;1.67;;
17596;SDS011;8917;50.942;6.946;2024-03-23T10:41:07;4.13;;;1.60;;
17596;SDS011;8917;50.942;6.946;2024-03-23T10:43:39;4.07;;;1.90;;
17596;SDS011;8917;50.942;6.946;2024-03-23T10:46:06;5.47;;;2.10;;
17596;SDS011;8917;50.942;6.946;2024-03-23T10:48:36;3.73;;;1.87;;
17596;SDS011;8917;50.942;6.946;2024-03-23T10:51:05;4.37;;;1.53;;
17596;SDS011;8917;50.942;6.946;2024-03-23T10:53:37;4.47;;;1.83;;
17596;SDS011;8917;50.942;6.946;2024-03-23T10:56:06;5.40;;;1.97;;
17596;SDS011;8917;50.942;6.946;2024-03-23T10:58:40;4.13;;;1.70;;
17596;SDS011;8917;50.942;6.946;2024-03-23T11:01:10;5.73;;;1.93;;
17596;SDS011;8917;50.942;6.946;2024-03-23T11:03:40;3.73;;;2.00;;
17596;SDS011;8917;50.942;6.946;2024-03-23T11:06:36;4.93;;;2.40;;
17596;SDS011;8917;50.942;6.946;2024-03-23T11:09:08;6.33;;;2.00;;
17596;SDS011;8917;50.942;6.946;2024-03-23T11:11:56;2.97;;;1.70;;
17596;SDS011;8917;50.942;6.946;2024-03-23T11:14:23;3.67;;;1.60;;
17596;SDS011;8917;50.942;6.946;2024-03-23T11:16:53;2.20;;;1.80;;
17596;SDS011;8917;50.942;6.946;2024-03-23T11:19:35;3.30;;;1.87;;
17596;SDS011;8917;50.942;6.946;2024-03-23T11:22:04;5.30;;;1.77;;
17596;SDS011;8917;50.942;6.946;2024-03-23T11:24:33;5.30;;;1.77;;
17596;SDS011;8917;50.942;6.946;2024-03-23T11:27:00;4.73;;;1.77;;
17596;SDS011;8917;50.942;6.946;2024-03-23T11:29:29;2.93;;;1.30;;
17596;SDS011;8917;50.942;6.946;2024-03-23T11:34:49;2.67;;;1.40;;
17596;SDS011;8917;50.942;6.946;2024-03-23T11:37:15;2.93;;;1.27;;
17596;SDS011;8917;50.942;6.946;2024-03-23T11:39:42;4.43;;;1.40;;
17596;SDS011;8917;50.942;6.946;2024-03-23T11:42:12;3.70;;;1.23;;
17596;SDS011;8917;50.942;6.946;2024-03-23T11:44:41;3.27;;;1.27;;
17596;SDS011;8917;50.942;6.946;2024-03-23T11:47:08;1.37;;;1.10;;
17596;SDS011;8917;50.942;6.946;2024-03-23T11:49:36;1.80;;;1.00;;
17596;SDS011;8917;50.942;6.946;2024-03-23T11:52:05;2.10;;;1.40;;
17596;SDS011;8917;50.942;6.946;2024-03-23T11:54:33;3.77;;;1.30;;
17596;SDS011;8917;50.942;6.946;2024-03-23T11:56:59;2.50;;;1.70;;
17596;SDS011;8917;50.942;6.946;2024-03-23T11:59:33;3.37;;;1.23;;
17596;SDS011;8917;50.942;6.946;2024-03-23T12:01:59;2.30;;;1.33;;
17596;SDS011;8917;50.942;6.946;2024-03-23T12:04:27;3.77;;;2.00;;
17596;SDS011;8917;50.942;6.946;2024-03-23T12:09:35;2.93;;;1.30;;
17596;SDS011;8917;50.942;6.946;2024-03-23T12:12:05;1.53;;;1.00;;
17596;SDS011;8917;50.942;6.946;2024-03-23T12:14:33;2.73;;;1.03;;
17596;SDS011;8917;50.942;6.946;2024-03-23T12:17:07;2.87;;;1.23;;
17596;SDS011;8917;50.942;6.946;2024-03-23T12:19:34;3.57;;;0.90;;
17596;SDS011;8917;50.942;6.946;2024-03-23T12:22:00;1.60;;;0.90;;
17596;SDS011;8917;50.942;6.946;2024-03-23T12:24:27;3.93;;;1.63;;
17596;SDS011;8917;50.942;6.946;2024-03-23T12:26:53;4.40;;;1.93;;
17596;SDS011;8917;50.942;6.946;2024-03-23T12:29:21;2.63;;;1.27;;
17596;SDS011;8917;50.942;6.946;2024-03-23T12:31:49;2.17;;;1.30;;
17596;SDS011;8917;50.942;6.946;2024-03-23T12:34:16;1.87;;;1.27;;
17596;SDS011;8917;50.942;6.946;2024-03-23T12:36:42;3.93;;;1.10;;
17596;SDS011;8917;50.942;6.946;2024-03-23T12:39:09;3.17;;;1.00;;
17596;SDS011;8917;50.942;6.946;2024-03-23T12:41:35;3.03;;;1.30;;
17596;SDS011;8917;50.942;6.946;2024-03-23T12:44:02;2.67;;;1.20;;
17596;SDS011;8917;50.942;6.946;2024-03-23T12:46:29;2.77;;;1.50;;
17596;SDS011;8917;50.942;6.946;2024-03-23T12:48:57;2.13;;;1.10;;
17596;SDS011;8917;50.942;6.946;2024-03-23T12:51:23;1.20;;;0.93;;
17596;SDS011;8917;50.942;6.946;2024-03-23T12:53:50;2.17;;;1.20;;
17596;SDS011;8917;50.942;6.946;2024-03-23T12:56:17;1.70;;;1.00;;
17596;SDS011;8917;50.942;6.946;2024-03-23T12:58:44;2.47;;;1.03;;
17596;SDS011;8917;50.942;6.946;2024-03-23T13:01:10;1.90;;;1.00;;
17596;SDS011;8917;50.942;6.946;2024-03-23T13:03:37;2.77;;;1.20;;
17596;SDS011;8917;50.942;6.946;2024-03-23T13:06:07;1.30;;;1.00;;
17596;SDS011;8917;50.942;6.946;2024-03-23T13:08:34;1.73;;;1.07;;
17596;SDS011;8917;50.942;6.946;2024-03-23T13:11:00;1.63;;;0.90;;
17596;SDS011;8917;50.942;6.946;2024-03-23T13:13:28;2.53;;;1.00;;
17596;SDS011;8917;50.942;6.946;2024-03-23T13:15:54;2.33;;;1.23;;
17596;SDS011;8917;50.942;6.946;2024-03-23T13:18:21;5.13;;;1.30;;
17596;SDS011;8917;50.942;6.946;2024-03-23T13:20:47;2.23;;;1.30;;
17596;SDS011;8917;50.942;6.946;2024-03-23T13:23:16;2.20;;;1.00;;
17596;SDS011;8917;50.942;6.946;2024-03-23T13:25:49;3.23;;;1.40;;
17596;SDS011;8917;50.942;6.946;2024-03-23T13:28:17;3.77;;;1.60;;
17596;SDS011;8917;50.942;6.946;2024-03-23T13:30:49;2.67;;;1.23;;
17596;SDS011;8917;50.942;6.946;2024-03-23T13:33:16;4.17;;;1.50;;
17596;SDS011;8917;50.942;6.946;2024-03-23T13:35:48;3.17;;;1.60;;
17596;SDS011;8917;50.942;6.946;2024-03-23T13:38:17;3.70;;;2.10;;
17596;SDS011;8917;50.942;6.946;2024-03-23T13:40:50;2.87;;;1.73;;
17596;SDS011;8917;50.942;6.946;2024-03-23T13:43:17;5.23;;;2.10;;
17596;SDS011;8917;50.942;6.946;2024-03-23T13:45:44;2.70;;;1.80;;
17596;SDS011;8917;50.942;6.946;2024-03-23T13:48:11;3.93;;;2.00;;
17596;SDS011;8917;50.942;6.946;2024-03-23T13:50:37;5.77;;;2.17;;
17596;SDS011;8917;50.942;6.946;2024-03-23T13:53:04;9.10;;;2.00;;
17596;SDS011;8917;50.942;6.946;2024-03-23T13:55:32;3.83;;;1.83;;
17596;SDS011;8917;50.942;6.946;2024-03-23T13:58:00;3.47;;;1.73;;
17596;SDS011;8917;50.942;6.946;2024-03-23T14:00:26;1.67;;;1.20;;
17596;SDS011;8917;50.942;6.946;2024-03-23T14:02:54;1.53;;;1.00;;
17596;SDS011;8917;50.942;6.946;2024-03-23T14:05:20;1.00;;;0.90;;
17596;SDS011;8917;50.942;6.946;2024-03-23T14:07:47;1.00;;;0.90;;
17596;SDS011;8917;50.942;6.946;2024-03-23T14:10:14;3.37;;;1.10;;
17596;SDS011;8917;50.942;6.946;2024-03-23T14:12:42;1.40;;;1.10;;
17596;SDS011;8917;50.942;6.946;2024-03-23T14:15:09;4.40;;;1.47;;
17596;SDS011;8917;50.942;6.946;2024-03-23T14:17:36;1.70;;;1.10;;
17596;SDS011;8917;50.942;6.946;2024-03-23T14:20:02;2.37;;;1.00;;
17596;SDS011;8917;50.942;6.946;2024-03-23T14:22:30;4.60;;;2.97;;
17596;SDS011;8917;50.942;6.946;2024-03-23T14:24:57;2.03;;;1.20;;
17596;SDS011;8917;50.942;6.946;2024-03-23T14:27:24;1.50;;;1.03;;
17596;SDS011;8917;50.942;6.946;2024-03-23T14:29:52;3.50;;;1.40;;
17596;SDS011;8917;50.942;6.946;2024-03-23T14:32:19;3.43;;;1.20;;
17596;SDS011;8917;50.942;6.946;2024-03-23T14:34:45;2.33;;;1.50;;
17596;SDS011;8917;50.942;6.946;2024-03-23T14:37:13;2.43;;;1.10;;
17596;SDS011;8917;50.942;6.946;2024-03-23T14:39:40;1.50;;;1.07;;
17596;SDS011;8917;50.942;6.946;2024-03-23T14:42:09;2.80;;;1.47;;
17596;SDS011;8917;50.942;6.946;2024-03-23T14:44:35;5.27;;;1.50;;
17596;SDS011;8917;50.942;6.946;2024-03-23T14:47:04;1.90;;;1.70;;
17596;SDS011;8917;50.942;6.946;2024-03-23T14:49:30;1.97;;;1.50;;
17596;SDS011;8917;50.942;6.946;2024-03-23T14:51:58;3.10;;;1.83;;
17596;SDS011;8917;50.942;6.946;2024-03-23T14:54:24;3.77;;;1.70;;
17596;SDS011;8917;50.942;6.946;2024-03-23T14:56:51;2.83;;;1.30;;
17596;SDS011;8917;50.942;6.946;2024-03-23T14:59:18;1.00;;;0.80;;
17596;SDS011;8917;50.942;6.946;2024-03-23T15:01:45;1.50;;;1.00;;
17596;SDS011;8917;50.942;6.946;2024-03-23T15:04:13;1.13;;;0.90;;
17596;SDS011;8917;50.942;6.946;2024-03-23T15:06:40;2.43;;;1.20;;
17596;SDS011;8917;50.942;6.946;2024-03-23T15:09:07;1.97;;;1.10;;
17596;SDS011;8917;50.942;6.946;2024-03-23T15:11:36;4.10;;;1.40;;
17596;SDS011;8917;50.942;6.946;2024-03-23T15:14:02;2.53;;;1.33;;
17596;SDS011;8917;50.942;6.946;2024-03-23T15:16:32;3.93;;;1.37;;
17596;SDS011;8917;50.942;6.946;2024-03-23T15:18:58;2.50;;;1.30;;
17596;SDS011;8917;50.942;6.946;2024-03-23T15:21:26;2.33;;;2.20;;
17596;SDS011;8917;50.942;6.946;2024-03-23T15:23:52;3.40;;;1.40;;
17596;SDS011;8917;50.942;6.946;2024-03-23T15:26:21;2.27;;;1.40;;
17596;SDS011;8917;50.942;6.946;2024-03-23T15:28:47;3.00;;;1.60;;
17596;SDS011;8917;50.942;6.946;2024-03-23T15:31:34;1.90;;;1.63;;
17596;SDS011;8917;50.942;6.946;2024-03-23T15:34:01;1.93;;;1.80;;
17596;SDS011;8917;50.942;6.946;2024-03-23T15:36:30;2.70;;;1.70;;
17596;SDS011;8917;50.942;6.946;2024-03-23T15:38:56;2.97;;;1.87;;
17596;SDS011;8917;50.942;6.946;2024-03-23T15:41:24;2.27;;;1.60;;
17596;SDS011;8917;50.942;6.946;2024-03-23T15:43:50;3.13;;;1.80;;
17596;SDS011;8917;50.942;6.946;2024-03-23T15:46:18;3.30;;;1.83;;
17596;SDS011;8917;50.942;6.946;2024-03-23T15:48:44;3.77;;;2.67;;
17596;SDS011;8917;50.942;6.946;2024-03-23T15:51:13;3.57;;;2.07;;
17596;SDS011;8917;50.942;6.946;2024-03-23T15:53:41;2.27;;;1.70;;
17596;SDS011;8917;50.942;6.946;2024-03-23T15:56:08;3.07;;;2.00;;
17596;SDS011;8917;50.942;6.946;2024-03-23T15:58:35;4.20;;;1.80;;
17596;SDS011;8917;50.942;6.946;2024-03-23T16:01:03;1.93;;;1.70;;
17596;SDS011;8917;50.942;6.946;2024-03-23T16:03:29;3.43;;;1.87;;